Time;durP1;ratioP1;P1;durP2;ratioP2;P2;SDS_P1;SDS_P2;PMS_P1;PMS_P2;Temp;Humidity;BMP_temperature;BMP_pressure;BME280_temperature;BME280_humidity;BME280_pressure;Samples;Min_cycle;Max_cycle;Signal;HPM_P1;HPM_P2
2023/01/22 00:01:25;;;;;;;3.50;0.90;;;;;;;8.30;98.13;102035.28;5004658;28;20104;-79
2023/01/22 00:03:53;;;;;;;1.55;0.60;;;;;;;8.18;96.84;102020.88;5007989;28;20451;-77
2023/01/22 00:06:22;;;;;;;3.50;0.77;;;;;;;8.14;97.97;102024.06;5007827;28;20046;-77
2023/01/22 00:08:51;;;;;;;2.35;0.90;;;;;;;8.19;98.89;102042.38;5011859;28;20159;-79
2023/01/22 00:11:20;;;;;;;2.20;0.90;;;;;;;8.10;98.54;102047.88;5006729;28;20080;-77
2023/01/22 00:13:50;;;;;;;1.27;0.65;;;;;;;8.12;100.00;102055.72;5011042;28;20144;-79
2023/01/22 00:16:19;;;;;;;3.95;1.15;;;;;;;8.15;100.00;102064.53;5002729;28;20535;-78
2023/01/22 00:18:47;;;;;;;3.90;0.88;;;;;;;8.19;99.40;102068.16;5011069;28;20042;-78
2023/01/22 00:21:17;;;;;;;1.55;0.63;;;;;;;8.23;96.82;102066.69;5011653;28;20511;-76
2023/01/22 00:23:45;;;;;;;2.42;0.90;;;;;;;8.25;94.73;102062.50;5011438;28;20065;-78
2023/01/22 00:26:17;;;;;;;4.60;0.90;;;;;;;8.27;92.53;102068.63;5012328;28;20033;-78
2023/01/22 00:28:46;;;;;;;4.50;1.30;;;;;;;8.29;89.44;102061.88;5011973;28;20056;-77
2023/01/22 00:31:17;;;;;;;4.07;0.80;;;;;;;8.31;89.95;102062.84;5012422;28;20539;-77
2023/01/22 00:33:46;;;;;;;8.35;0.90;;;;;;;8.30;90.36;102061.97;5007411;28;20685;-77
2023/01/22 00:36:17;;;;;;;3.63;0.73;;;;;;;8.29;90.79;102062.78;5014112;28;20041;-78
2023/01/22 00:38:46;;;;;;;2.35;0.90;;;;;;;8.28;90.92;102065.25;5009223;28;20486;-76
2023/01/22 00:41:16;;;;;;;3.78;0.88;;;;;;;8.26;90.39;102072.00;4999967;28;20046;-78
2023/01/22 00:43:45;;;;;;;2.60;0.88;;;;;;;8.24;91.05;102066.75;5002070;28;20038;-77
2023/01/22 00:46:16;;;;;;;2.42;0.60;;;;;;;8.22;91.77;102068.34;5007484;28;20046;-79
2023/01/22 00:48:48;;;;;;;2.65;0.63;;;;;;;8.21;93.23;102076.00;4998111;28;20452;-78
2023/01/22 00:51:16;;;;;;;4.28;1.08;;;;;;;8.21;93.26;102076.88;5000211;28;20056;-78
2023/01/22 00:53:45;;;;;;;4.70;0.70;;;;;;;8.18;92.92;102063.81;5008382;28;20045;-77
2023/01/22 00:56:15;;;;;;;1.55;0.70;;;;;;;8.14;93.96;102065.31;5011100;28;20086;-76
2023/01/22 00:58:44;;;;;;;4.57;0.63;;;;;;;8.10;94.67;102062.47;5010371;28;20053;-76
2023/01/22 01:01:15;;;;;;;3.47;0.60;;;;;;;8.05;94.41;102057.03;5003972;28;20057;-77
2023/01/22 01:03:45;;;;;;;3.47;0.70;;;;;;;7.97;95.54;102060.81;5009211;28;20042;-76
2023/01/22 01:06:17;;;;;;;4.10;1.08;;;;;;;7.91;96.17;102066.50;5000051;28;20073;-76
2023/01/22 01:08:45;;;;;;;4.93;0.73;;;;;;;7.89;96.83;102067.22;5000374;28;20046;-77
2023/01/22 01:11:16;;;;;;;2.08;0.73;;;;;;;7.85;97.86;102067.81;5004665;28;20635;-77
2023/01/22 01:13:45;;;;;;;5.50;1.20;;;;;;;7.76;97.51;102055.25;5003917;28;20053;-76
2023/01/22 01:16:16;;;;;;;4.45;0.75;;;;;;;7.74;97.94;102059.41;5011366;28;20060;-77
2023/01/22 01:18:46;;;;;;;5.60;0.93;;;;;;;7.65;98.59;102057.19;5000197;28;20424;-75
2023/01/22 01:21:15;;;;;;;3.10;1.40;;;;;;;7.62;99.32;102059.53;5002459;28;20046;-76
2023/01/22 01:23:44;;;;;;;2.03;0.75;;;;;;;7.59;99.43;102069.66;5011069;28;20046;-75
2023/01/22 01:26:15;;;;;;;3.15;0.70;;;;;;;7.54;98.62;102074.53;5010987;28;20097;-77
2023/01/22 01:28:44;;;;;;;5.00;1.00;;;;;;;7.49;98.36;102086.22;5010271;28;20050;-76
2023/01/22 01:31:14;;;;;;;6.97;1.08;;;;;;;7.44;98.18;102087.59;5006255;28;20475;-76
2023/01/22 01:33:43;;;;;;;3.10;0.47;;;;;;;7.38;96.85;102076.06;5009362;28;20642;-76
2023/01/22 01:36:14;;;;;;;3.90;0.80;;;;;;;7.33;95.69;102074.06;5012060;28;20049;-76
2023/01/22 01:38:43;;;;;;;4.32;0.68;;;;;;;7.28;95.14;102082.28;5012906;28;20046;-77
2023/01/22 01:41:15;;;;;;;4.40;0.52;;;;;;;7.24;94.84;102091.50;5010475;28;20163;-78
2023/01/22 01:43:44;;;;;;;4.38;0.75;;;;;;;7.19;95.03;102085.13;5003669;28;20611;-77
2023/01/22 01:46:20;;;;;;;4.22;1.00;;;;;;;7.12;94.91;102076.16;5007192;28;20061;-76
2023/01/22 01:48:52;;;;;;;6.88;0.88;;;;;;;7.06;95.46;102074.88;5010337;28;20480;-77
2023/01/22 01:51:28;;;;;;;3.58;0.77;;;;;;;6.99;96.65;102076.16;5010323;28;20455;-77
2023/01/22 01:53:58;;;;;;;1.13;0.60;;;;;;;6.98;97.89;102074.34;5006443;28;20519;-77
2023/01/22 01:56:31;;;;;;;4.60;0.80;;;;;;;6.95;98.06;102079.31;5010452;28;20054;-77
2023/01/22 01:59:04;;;;;;;3.05;0.95;;;;;;;6.93;98.50;102086.91;5012684;28;20053;-78
2023/01/22 02:01:33;;;;;;;4.57;0.85;;;;;;;6.91;98.52;102072.16;5009986;28;20511;-79
2023/01/22 02:04:02;;;;;;;3.95;0.80;;;;;;;6.88;98.71;102082.28;5011215;28;20488;-76
2023/01/22 02:06:32;;;;;;;6.28;1.00;;;;;;;6.79;99.39;102098.00;5006980;28;20507;-76
2023/01/22 02:09:02;;;;;;;2.53;0.80;;;;;;;6.76;99.47;102097.81;5011792;28;20054;-77
2023/01/22 02:11:33;;;;;;;4.63;1.25;;;;;;;6.72;99.37;102100.94;5008632;28;20089;-78
2023/01/22 02:14:05;;;;;;;4.93;0.63;;;;;;;6.69;98.84;102106.78;5011070;28;20041;-77
2023/01/22 02:16:34;;;;;;;0.95;0.40;;;;;;;6.64;98.93;102105.59;5010219;28;20041;-76
2023/01/22 02:19:02;;;;;;;6.93;1.77;;;;;;;6.65;98.47;102103.91;5010525;28;20042;-75
2023/01/22 02:21:38;;;;;;;3.72;0.70;;;;;;;6.63;98.85;102095.19;5009192;28;20065;-77
2023/01/22 02:24:09;;;;;;;6.93;1.25;;;;;;;6.71;97.31;102099.16;5003667;28;20480;-78
2023/01/22 02:26:38;;;;;;;6.07;0.98;;;;;;;6.75;98.46;102103.72;5013533;28;20057;-77
2023/01/22 02:29:07;;;;;;;1.75;0.65;;;;;;;6.74;96.51;102106.22;5012935;28;20050;-77
2023/01/22 02:31:37;;;;;;;4.70;1.00;;;;;;;6.70;96.50;102113.69;5013446;28;20576;-77
2023/01/22 02:34:06;;;;;;;3.72;1.10;;;;;;;6.70;100.00;102117.97;5016635;28;20064;-76
2023/01/22 02:36:39;;;;;;;4.10;0.55;;;;;;;6.73;100.00;102115.56;5014178;28;20058;-78
2023/01/22 02:39:08;;;;;;;3.03;0.82;;;;;;;6.70;100.00;102113.69;5014091;28;20041;-76
2023/01/22 02:41:37;;;;;;;3.80;0.90;;;;;;;6.73;100.00;102115.56;5014337;28;20054;-75
2023/01/22 02:44:07;;;;;;;5.88;1.15;;;;;;;6.70;100.00;102123.09;5014157;28;20065;-77
2023/01/22 02:46:36;;;;;;;6.38;1.15;;;;;;;6.71;100.00;102124.88;5014113;28;20052;-77
2023/01/22 02:49:05;;;;;;;1.73;0.70;;;;;;;6.69;100.00;102126.47;5015047;28;20049;-78
2023/01/22 02:51:33;;;;;;;1.73;0.80;;;;;;;6.65;100.00;102135.66;5008088;28;20057;-77
2023/01/22 02:54:04;;;;;;;7.20;1.13;;;;;;;6.62;100.00;102130.31;5019013;28;20050;-77
2023/01/22 02:56:34;;;;;;;5.68;0.82;;;;;;;6.62;100.00;102134.53;5011821;28;20041;-78
2023/01/22 02:59:03;;;;;;;3.22;0.73;;;;;;;6.55;100.00;102135.84;5011652;28;20616;-78
2023/01/22 03:01:31;;;;;;;8.02;0.82;;;;;;;6.54;100.00;102136.59;4989777;28;20125;-77
2023/01/22 03:04:09;;;;;;;7.20;1.27;;;;;;;6.53;100.00;102132.25;4994538;28;20051;-78
2023/01/22 03:06:40;;;;;;;3.10;0.75;;;;;;;6.45;99.41;102125.69;4988862;28;20137;-77
2023/01/22 03:09:11;;;;;;;5.32;0.85;;;;;;;6.38;98.97;102116.66;4983684;28;20053;-78
2023/01/22 03:11:42;;;;;;;3.92;0.50;;;;;;;6.36;100.00;102122.50;4994540;28;20050;-80
2023/01/22 03:22:27;;;;;;;5.93;0.68;;;;;;;6.19;94.50;102131.63;4985527;28;20066;-82
2023/01/22 03:24:59;;;;;;;10.50;2.42;;;;;;;6.13;94.92;102133.78;4987456;28;20047;-83
2023/01/22 03:27:29;;;;;;;9.35;3.25;;;;;;;6.04;95.65;102155.44;4994042;28;20046;-84
2023/01/22 03:29:57;;;;;;;8.93;1.90;;;;;;;5.98;96.29;102155.03;4994658;28;20214;-82
2023/01/22 03:32:26;;;;;;;5.72;1.35;;;;;;;5.96;96.75;102148.03;4988784;28;20251;-81
2023/01/22 03:34:55;;;;;;;11.52;1.88;;;;;;;5.89;96.77;102144.09;4995681;28;20054;-82
2023/01/22 03:37:24;;;;;;;7.60;1.05;;;;;;;5.87;96.83;102145.66;4993706;28;20123;-81
2023/01/22 03:39:52;;;;;;;9.40;1.40;;;;;;;5.84;97.59;102153.13;4994063;28;20488;-79
2023/01/22 03:42:24;;;;;;;6.10;1.48;;;;;;;5.78;98.05;102153.59;4994309;28;20050;-80
2023/01/22 03:44:53;;;;;;;7.68;1.38;;;;;;;5.70;98.96;102152.13;4983389;28;20471;-82
2023/01/22 03:47:22;;;;;;;5.90;1.20;;;;;;;5.64;99.55;102155.19;4993296;28;20053;-79
2023/01/22 03:49:50;;;;;;;6.88;1.15;;;;;;;5.59;99.47;102150.47;4993349;28;20046;-81
2023/01/22 03:52:19;;;;;;;2.03;1.02;;;;;;;5.64;100.00;102160.31;4992934;28;20552;-76
2023/01/22 03:54:47;;;;;;;3.97;0.82;;;;;;;5.60;100.00;102158.31;4992742;28;20046;-80
2023/01/22 03:57:16;;;;;;;10.18;1.70;;;;;;;5.58;100.00;102157.28;4993544;28;20046;-78
2023/01/22 03:59:46;;;;;;;3.17;0.77;;;;;;;5.52;100.00;102159.44;4997546;28;20491;-81
2023/01/22 04:02:14;;;;;;;9.07;1.40;;;;;;;5.51;100.00;102157.63;5005572;28;20089;-82
2023/01/22 04:04:46;;;;;;;5.63;0.82;;;;;;;5.52;100.00;102166.22;5007259;28;20050;-79
2023/01/22 04:07:15;;;;;;;5.97;0.95;;;;;;;5.49;100.00;102169.47;5004129;28;20072;-83
2023/01/22 04:09:43;;;;;;;4.88;1.42;;;;;;;5.49;100.00;102168.59;5012298;28;20543;-81
2023/01/22 04:12:12;;;;;;;2.90;0.73;;;;;;;5.50;100.00;102170.34;5012120;28;20046;-80
2023/01/22 04:14:40;;;;;;;3.45;0.70;;;;;;;5.48;100.00;102170.25;5011316;28;20074;-80
2023/01/22 04:17:13;;;;;;;2.63;0.90;;;;;;;5.46;100.00;102177.84;5007890;28;20061;-79
2023/01/22 04:19:41;;;;;;;3.45;0.70;;;;;;;5.46;100.00;102182.09;5012717;28;20054;-78
2023/01/22 04:22:10;;;;;;;3.03;0.73;;;;;;;5.44;100.00;102178.50;5010056;28;20045;-79
2023/01/22 04:24:38;;;;;;;2.97;0.80;;;;;;;5.38;99.82;102180.63;5013840;28;20113;-79
2023/01/22 04:27:07;;;;;;;5.30;0.90;;;;;;;5.32;100.00;102180.19;5011201;28;20053;-79
2023/01/22 04:29:35;;;;;;;5.30;1.65;;;;;;;5.30;100.00;102177.50;5013689;28;20046;-81
2023/01/22 04:32:04;;;;;;;5.93;1.30;;;;;;;5.27;100.00;102171.25;5014000;28;20570;-81
2023/01/22 04:34:34;;;;;;;8.82;2.08;;;;;;;5.21;100.00;102166.56;5013138;28;20076;-79
2023/01/22 04:37:03;;;;;;;8.25;2.08;;;;;;;5.18;100.00;102159.53;5013230;28;20045;-84
2023/01/22 04:39:31;;;;;;;14.48;2.20;;;;;;;5.21;100.00;102167.44;5012388;28;20057;-77
2023/01/22 04:42:00;;;;;;;9.95;1.95;;;;;;;5.25;100.00;102174.59;5012471;28;20109;-79
2023/01/22 04:44:28;;;;;;;3.72;1.08;;;;;;;5.30;100.00;102171.50;5003548;28;20050;-78
2023/01/22 04:46:57;;;;;;;7.45;1.10;;;;;;;5.29;100.00;102155.19;5000109;28;20455;-80
2023/01/22 04:49:27;;;;;;;3.75;1.38;;;;;;;5.39;100.00;102161.91;5014743;28;20076;-77
2023/01/22 04:51:58;;;;;;;9.32;1.73;;;;;;;5.44;100.00;102151.16;5007254;28;20128;-78
2023/01/22 04:54:26;;;;;;;4.68;0.60;;;;;;;5.54;100.00;102154.41;5003763;28;20057;-77
2023/01/22 04:56:55;;;;;;;9.23;1.38;;;;;;;5.62;100.00;102153.28;5013877;28;20073;-79
2023/01/22 04:59:24;;;;;;;2.83;0.65;;;;;;;5.66;100.00;102148.47;5010022;28;20054;-77
2023/01/22 05:01:53;;;;;;;4.13;1.33;;;;;;;5.69;100.00;102152.06;5014710;28;20057;-79
2023/01/22 05:04:25;;;;;;;6.75;2.22;;;;;;;5.74;100.00;102150.69;5006324;28;20038;-77
2023/01/22 05:06:54;;;;;;;8.27;1.07;;;;;;;5.78;99.42;102152.72;5011215;28;20503;-78
2023/01/22 05:09:25;;;;;;;8.77;0.65;;;;;;;5.77;98.08;102153.47;5010364;28;20287;-80
2023/01/22 05:11:53;;;;;;;11.05;1.65;;;;;;;5.81;97.73;102163.19;5004224;28;20101;-81
2023/01/22 05:14:22;;;;;;;11.35;0.98;;;;;;;5.76;96.81;102146.56;5012765;28;20088;-79
2023/01/22 05:16:50;;;;;;;6.45;0.80;;;;;;;5.87;95.90;102173.91;5010977;28;20050;-82
2023/01/22 05:19:19;;;;;;;6.22;1.10;;;;;;;5.86;96.13;102173.03;5006185;28;20054;-78
2023/01/22 05:21:47;;;;;;;7.78;1.00;;;;;;;5.87;95.45;102179.94;5012332;28;20061;-81
2023/01/22 05:24:17;;;;;;;10.77;1.23;;;;;;;5.86;95.53;102187.53;5014868;28;20488;-82
2023/01/22 05:26:47;;;;;;;5.10;0.68;;;;;;;5.84;95.68;102174.59;5003738;28;20046;-80
2023/01/22 05:29:16;;;;;;;5.28;0.93;;;;;;;5.84;96.58;102184.88;5012715;28;20459;-82
2023/01/22 05:31:45;;;;;;;5.03;1.02;;;;;;;5.83;96.85;102193.34;5012928;28;20470;-82
2023/01/22 05:34:13;;;;;;;6.82;1.35;;;;;;;5.84;95.89;102199.34;5009708;28;20038;-79
2023/01/22 05:36:42;;;;;;;14.93;1.50;;;;;;;5.76;95.72;102187.66;5007574;28;20050;-80
2023/01/22 05:39:11;;;;;;;3.30;0.75;;;;;;;5.73;95.47;102190.91;5008787;28;20044;-78
2023/01/22 05:41:39;;;;;;;4.20;1.13;;;;;;;5.74;96.00;102184.09;5008636;28;20320;-80
2023/01/22 05:44:12;;;;;;;11.43;1.55;;;;;;;5.75;96.13;102188.44;4999779;28;20047;-81
2023/01/22 05:46:40;;;;;;;;;;;;;;;5.74;94.61;102192.69;5008937;28;20415;-78
2023/01/22 05:49:09;;;;;;;3.00;1.10;;;;;;;5.73;93.94;102190.91;4999903;28;19932;-77
2023/01/22 05:51:37;;;;;;;4.97;0.93;;;;;;;5.76;94.14;102197.94;5007403;28;20050;-78
2023/01/22 05:54:06;;;;;;;3.10;0.70;;;;;;;5.76;93.41;102205.63;5008619;28;20049;-79
2023/01/22 05:56:35;;;;;;;8.27;1.48;;;;;;;5.75;93.43;102219.25;5009143;28;20064;-78
2023/01/22 05:59:03;;;;;;;8.15;0.95;;;;;;;5.74;92.67;102218.34;5002089;28;20050;-78
2023/01/22 06:01:34;;;;;;;6.00;1.15;;;;;;;5.74;92.81;102228.63;5008733;28;20058;-79
2023/01/22 06:04:09;;;;;;;7.35;0.98;;;;;;;5.79;93.73;102226.41;5013340;28;20671;-76
2023/01/22 06:06:37;;;;;;;6.10;0.85;;;;;;;5.82;94.34;102229.22;5012735;28;20563;-77
2023/01/22 06:09:06;;;;;;;4.78;1.02;;;;;;;5.83;95.47;102234.44;5010678;28;20099;-77
2023/01/22 06:11:34;;;;;;;7.78;1.90;;;;;;;5.84;95.05;102230.19;5013309;28;20415;-76
2023/01/22 06:14:03;;;;;;;2.33;0.93;;;;;;;5.81;94.73;102233.44;5001794;28;20577;-79
2023/01/22 06:16:34;;;;;;;4.22;1.10;;;;;;;5.77;94.27;102230.53;5019021;28;20494;-78
2023/01/22 06:19:03;;;;;;;8.23;1.05;;;;;;;5.76;94.81;102244.16;5013241;28;20495;-77
2023/01/22 06:21:31;;;;;;;5.97;2.17;;;;;;;5.74;94.71;102243.16;5012391;28;20056;-79
2023/01/22 06:24:00;;;;;;;10.07;2.75;;;;;;;5.73;94.73;102241.38;5004610;28;20065;-80
2023/01/22 06:26:28;;;;;;;8.63;1.67;;;;;;;5.72;95.09;102249.84;5012948;28;20415;-79
2023/01/22 06:28:57;;;;;;;8.90;1.38;;;;;;;5.71;95.13;102245.50;5012282;28;20553;-78
2023/01/22 06:31:26;;;;;;;10.35;2.67;;;;;;;5.66;94.54;102246.06;5014140;28;20494;-78
2023/01/22 06:33:56;;;;;;;7.13;2.22;;;;;;;5.61;93.46;102259.31;5004778;28;20101;-78
2023/01/22 06:36:25;;;;;;;9.82;3.38;;;;;;;5.56;94.69;102264.13;5012786;28;20618;-78
2023/01/22 06:38:53;;;;;;;10.10;3.75;;;;;;;5.52;94.85;102267.28;5011437;28;20460;-78
2023/01/22 06:41:23;;;;;;;9.10;3.50;;;;;;;5.46;93.86;102266.81;5003409;28;20053;-78
2023/01/22 06:43:52;;;;;;;6.10;2.42;;;;;;;5.38;94.22;102271.38;5012453;28;20533;-79
2023/01/22 06:46:20;;;;;;;6.28;1.27;;;;;;;5.34;94.39;102268.47;5009064;28;20487;-78
2023/01/22 06:48:49;;;;;;;10.00;1.70;;;;;;;5.34;94.03;102265.91;5007877;28;20054;-78
2023/01/22 06:51:20;;;;;;;10.32;1.38;;;;;;;5.33;93.58;102274.38;5001392;28;20047;-79
2023/01/22 06:53:48;;;;;;;2.33;0.70;;;;;;;5.37;93.70;102276.38;5012361;28;20132;-78
2023/01/22 06:56:17;;;;;;;5.18;1.25;;;;;;;5.40;93.44;102271.47;5011605;28;20133;-79
2023/01/22 06:58:46;;;;;;;7.38;1.23;;;;;;;5.45;93.19;102280.41;5011775;28;20053;-78
2023/01/22 07:01:14;;;;;;;8.73;1.05;;;;;;;5.46;92.61;102277.97;5011244;28;20066;-79
2023/01/22 07:03:44;;;;;;;5.38;1.10;;;;;;;5.53;91.76;102281.00;5012285;28;20053;-78
2023/01/22 07:06:13;;;;;;;12.50;1.17;;;;;;;5.54;90.83;102290.47;5008525;28;20046;-80
2023/01/22 07:08:44;;;;;;;4.63;0.80;;;;;;;5.46;91.25;102270.25;5003213;28;20408;-79
2023/01/22 07:11:13;;;;;;;6.18;1.77;;;;;;;5.55;92.36;102289.72;5011146;28;20046;-77
2023/01/22 07:13:42;;;;;;;7.45;1.38;;;;;;;5.45;92.66;102286.47;5011421;28;20488;-79
2023/01/22 07:16:11;;;;;;;5.82;1.08;;;;;;;5.47;93.49;102304.53;5012102;28;20049;-79
2023/01/22 07:18:40;;;;;;;13.07;1.23;;;;;;;5.36;95.11;102293.47;5011120;28;20094;-78
2023/01/22 07:21:08;;;;;;;7.32;0.93;;;;;;;5.33;94.47;102310.31;5011130;28;20092;-79
2023/01/22 07:23:37;;;;;;;13.18;1.77;;;;;;;5.25;94.82;102320.88;5011209;28;20052;-78
2023/01/22 07:26:08;;;;;;;8.48;1.17;;;;;;;5.20;95.03;102314.50;5010960;28;20412;-78
2023/01/22 07:28:36;;;;;;;10.95;1.48;;;;;;;5.09;95.35;102320.50;5011401;28;20544;-79
2023/01/22 07:31:09;;;;;;;1.58;0.82;;;;;;;5.04;95.60;102326.94;5012588;28;20508;-77
2023/01/22 07:33:37;;;;;;;;;;;;;;;4.99;95.49;102329.16;5005009;28;20496;-77
2023/01/22 07:36:13;;;;;;;4.50;1.50;;;;;;;4.95;94.88;102331.38;5008231;28;20001;-78
2023/01/22 07:38:42;;;;;;;6.07;1.35;;;;;;;4.89;95.71;102330.88;5005716;28;20381;-77
2023/01/22 07:41:12;;;;;;;15.30;1.45;;;;;;;4.82;95.36;102332.97;5011824;28;20496;-78
2023/01/22 07:43:41;;;;;;;17.45;1.58;;;;;;;4.75;95.77;102323.00;5011163;28;20104;-77
2023/01/22 07:46:10;;;;;;;8.43;1.35;;;;;;;4.79;96.40;102335.31;5001394;28;20054;-77
2023/01/22 07:48:38;;;;;;;1.95;0.82;;;;;;;4.79;96.24;102335.31;5018787;28;20054;-77
2023/01/22 07:51:08;;;;;;;6.32;1.08;;;;;;;4.81;96.30;102338.88;5010975;28;20057;-77
2023/01/22 07:53:36;;;;;;;2.10;0.77;;;;;;;4.82;96.48;102337.22;5009679;28;20068;-77
2023/01/22 07:56:17;;;;;;;6.05;1.48;;;;;;;4.81;95.80;102343.09;5013500;28;20061;-78
2023/01/22 07:58:46;;;;;;;8.07;1.17;;;;;;;4.76;96.39;102342.72;5002155;28;20392;-77
2023/01/22 08:01:21;;;;;;;5.07;1.48;;;;;;;4.75;96.03;102340.97;5013530;28;20046;-77
2023/01/22 08:03:49;;;;;;;3.60;1.15;;;;;;;4.75;96.25;102337.50;5007883;28;20042;-77
2023/01/22 08:06:21;;;;;;;5.90;1.52;;;;;;;4.68;96.06;102333.56;5003403;28;20049;-76
2023/01/22 08:08:49;;;;;;;7.28;1.15;;;;;;;4.57;97.00;102326.69;5010557;28;20058;-77
2023/01/22 08:11:20;;;;;;;12.90;1.38;;;;;;;4.47;98.09;102329.31;5007212;28;20065;-76
2023/01/22 08:13:48;;;;;;;4.45;1.10;;;;;;;4.46;99.52;102338.66;5010659;28;20046;-77
2023/01/22 08:16:17;;;;;;;6.15;1.35;;;;;;;4.46;99.40;102330.97;5008722;28;20045;-75
2023/01/22 08:18:46;;;;;;;7.15;1.48;;;;;;;4.35;100.00;102335.25;5009124;28;20061;-76
2023/01/22 08:21:15;;;;;;;2.10;1.10;;;;;;;4.18;100.00;102328.75;5010875;28;20046;-77
2023/01/22 08:23:43;;;;;;;10.98;1.50;;;;;;;4.07;100.00;102342.38;5003816;28;20109;-77
2023/01/22 08:26:12;;;;;;;1.73;0.70;;;;;;;4.06;100.00;102340.59;5010014;28;20041;-77
2023/01/22 08:28:42;;;;;;;5.40;1.27;;;;;;;4.07;100.00;102336.34;5010247;28;20050;-77
2023/01/22 08:31:11;;;;;;;4.35;0.73;;;;;;;4.08;99.48;102333.03;5013642;28;20049;-76
2023/01/22 08:33:39;;;;;;;5.00;0.65;;;;;;;4.04;98.35;102333.56;5014309;28;20459;-76
2023/01/22 08:36:09;;;;;;;5.45;0.82;;;;;;;3.86;98.12;102315.91;5011257;28;20077;-76
2023/01/22 08:38:37;;;;;;;7.65;1.10;;;;;;;3.99;98.04;102339.19;5009889;28;20061;-76
2023/01/22 08:41:06;;;;;;;9.90;2.25;;;;;;;3.96;97.88;102335.47;5011165;28;20072;-77
2023/01/22 08:43:34;;;;;;;6.10;2.42;;;;;;;3.93;96.46;102337.81;5007998;28;20057;-77
2023/01/22 08:46:05;;;;;;;8.75;2.72;;;;;;;3.89;96.65;102353.69;5003835;28;20053;-77
2023/01/22 08:48:33;;;;;;;11.02;2.28;;;;;;;3.84;95.66;102353.31;4999191;28;20046;-76
2023/01/22 08:51:02;;;;;;;7.80;2.47;;;;;;;3.80;96.43;102351.25;5000492;28;20046;-75
2023/01/22 08:53:31;;;;;;;8.40;2.45;;;;;;;3.76;96.16;102350.13;5010932;28;20049;-77
2023/01/22 08:55:59;;;;;;;11.45;4.13;;;;;;;3.73;95.18;102354.09;5011410;28;20602;-78
2023/01/22 08:58:28;;;;;;;8.13;4.28;;;;;;;3.69;95.85;102354.63;5009356;28;20053;-76
2023/01/22 09:01:03;;;;;;;12.50;3.50;;;;;;;3.66;96.73;102347.56;5011213;28;20049;-78
2023/01/22 09:03:33;;;;;;;12.57;2.75;;;;;;;3.62;96.98;102344.63;5009780;28;20049;-77
2023/01/22 09:06:02;;;;;;;6.88;2.25;;;;;;;3.58;97.31;102345.16;4998185;28;20043;-76
2023/01/22 09:08:30;;;;;;;2.75;1.27;;;;;;;3.54;96.69;102350.00;5005741;28;20049;-77
2023/01/22 09:10:59;;;;;;;5.72;1.55;;;;;;;3.48;96.97;102357.19;5005824;28;20531;-76
2023/01/22 09:13:27;;;;;;;10.32;1.92;;;;;;;3.44;97.21;102347.44;5004939;28;20053;-78
2023/01/22 09:15:57;;;;;;;7.63;1.70;;;;;;;3.40;97.04;102359.88;5011007;28;20123;-76
2023/01/22 09:18:26;;;;;;;3.78;2.10;;;;;;;3.33;96.66;102353.34;5001473;28;20046;-77
2023/01/22 09:20:57;;;;;;;8.43;1.88;;;;;;;3.25;97.39;102357.81;5006744;28;20046;-77
2023/01/22 09:23:25;;;;;;;11.65;1.77;;;;;;;3.24;98.19;102365.34;4995417;28;20054;-77
2023/01/22 09:25:54;;;;;;;4.38;1.73;;;;;;;3.22;97.75;102359.19;5010299;28;20092;-77
2023/01/22 09:28:23;;;;;;;9.30;1.90;;;;;;;3.17;97.31;102357.94;5019856;28;20502;-77
2023/01/22 09:30:51;;;;;;;7.68;1.55;;;;;;;3.15;97.96;102356.13;5009774;28;20049;-76
2023/01/22 09:33:20;;;;;;;8.27;1.75;;;;;;;3.13;98.14;102364.41;5013676;28;20057;-77
2023/01/22 09:35:48;;;;;;;6.18;1.83;;;;;;;3.09;97.98;102372.59;5005333;28;20046;-77
2023/01/22 09:38:19;;;;;;;5.45;1.95;;;;;;;3.06;97.57;102386.03;5005109;28;20077;-76
2023/01/22 09:40:53;;;;;;;4.47;1.63;;;;;;;3.03;98.02;102385.75;5001046;28;20046;-77
2023/01/22 09:43:32;;;;;;;6.38;1.40;;;;;;;3.01;98.59;102391.53;5008714;28;20050;-77
2023/01/22 09:46:04;;;;;;;5.68;1.33;;;;;;;2.97;99.81;102386.91;4995928;28;20061;-77
2023/01/22 09:48:40;;;;;;;7.65;2.10;;;;;;;2.99;98.93;102393.03;4998122;28;20049;-77
2023/01/22 09:51:11;;;;;;;3.47;1.25;;;;;;;2.97;99.21;102404.78;4996176;28;20046;-77
2023/01/22 09:53:41;;;;;;;4.90;1.42;;;;;;;2.93;99.31;102401.06;5008850;28;20116;-77
2023/01/22 09:56:21;;;;;;;4.35;1.77;;;;;;;2.92;99.46;102406.94;5011087;28;20057;-77
2023/01/22 09:58:52;;;;;;;4.07;1.45;;;;;;;2.91;100.00;102402.63;5002078;28;20038;-77
2023/01/22 10:01:22;;;;;;;9.40;2.75;;;;;;;2.89;100.00;102407.59;5003728;28;20080;-77
2023/01/22 10:03:54;;;;;;;7.30;1.35;;;;;;;2.87;99.93;102408.22;5009382;28;20077;-76
2023/01/22 10:06:24;;;;;;;4.15;1.42;;;;;;;2.83;98.97;102417.28;5002809;28;20111;-78
2023/01/22 10:09:03;;;;;;;2.78;1.48;;;;;;;2.81;99.75;102413.69;5005500;28;20054;-78
2023/01/22 10:11:32;;;;;;;11.68;1.77;;;;;;;2.79;99.11;102409.19;4993973;28;20062;-76
2023/01/22 10:14:03;;;;;;;4.07;1.00;;;;;;;2.76;98.72;102426.84;5007534;28;20543;-76
2023/01/22 10:16:31;;;;;;;5.43;1.90;;;;;;;2.66;99.34;102412.38;5009910;28;20057;-76
2023/01/22 10:19:03;;;;;;;3.08;1.80;;;;;;;2.74;100.00;102431.81;5008623;28;20042;-76
2023/01/22 10:21:33;;;;;;;4.47;1.63;;;;;;;2.71;99.23;102445.22;5010245;28;20488;-77
2023/01/22 10:24:03;;;;;;;4.32;1.70;;;;;;;2.66;97.88;102436.25;5009073;28;20059;-77
2023/01/22 10:26:37;;;;;;;1.92;1.33;;;;;;;2.62;98.14;102446.97;5009613;28;20377;-77
2023/01/22 10:29:08;;;;;;;4.10;1.20;;;;;;;2.59;98.75;102450.88;5007788;28;20042;-77
2023/01/22 10:31:39;;;;;;;8.25;2.00;;;;;;;2.55;98.67;102444.63;5004966;28;20547;-77
2023/01/22 10:34:14;;;;;;;4.20;2.00;;;;;;;2.54;98.68;102450.47;5008446;28;20073;-77
2023/01/22 10:36:50;;;;;;;5.75;1.80;;;;;;;2.52;99.43;102446.91;5007311;28;20069;-77
2023/01/22 10:39:21;;;;;;;5.68;2.05;;;;;;;2.49;99.21;102444.97;5001733;28;20506;-77
2023/01/22 10:41:50;;;;;;;8.63;1.95;;;;;;;2.47;99.76;102450.69;5010151;28;20069;-77
2023/01/22 10:44:22;;;;;;;6.20;1.92;;;;;;;2.45;99.31;102450.59;4993018;28;20058;-78
2023/01/22 10:46:51;;;;;;;7.05;1.77;;;;;;;2.43;99.79;102453.78;5012606;28;20129;-76
2023/01/22 10:49:21;;;;;;;10.43;1.85;;;;;;;2.40;99.65;102456.91;5012875;28;20052;-77
2023/01/22 10:51:56;;;;;;;3.33;1.38;;;;;;;2.38;100.00;102458.44;5012471;28;20554;-77
2023/01/22 10:54:31;;;;;;;6.40;1.90;;;;;;;2.37;100.00;102463.44;5004391;28;20511;-77
2023/01/22 10:57:19;;;;;;;4.15;1.60;;;;;;;2.35;100.00;102470.06;5012276;28;20476;-76
2023/01/22 10:59:51;;;;;;;3.63;1.42;;;;;;;2.35;100.00;102473.50;5012866;28;20051;-76
2023/01/22 11:02:22;;;;;;;4.03;1.85;;;;;;;2.35;100.00;102475.16;4992123;28;20066;-76
2023/01/22 11:04:51;;;;;;;3.15;0.80;;;;;;;2.34;100.00;102473.34;4993558;28;20050;-77
2023/01/22 11:07:23;;;;;;;6.35;1.33;;;;;;;2.35;100.00;102475.16;4980413;28;20093;-77
2023/01/22 11:10:00;;;;;;;9.32;2.10;;;;;;;2.34;100.00;102479.38;4988954;28;20043;-77
2023/01/22 11:12:35;;;;;;;5.03;0.98;;;;;;;2.30;100.00;102478.19;4990467;28;20046;-77
2023/01/22 11:15:14;;;;;;;6.28;1.65;;;;;;;2.24;100.00;102477.63;4993805;28;20055;-78
2023/01/22 11:17:49;;;;;;;1.88;0.95;;;;;;;2.19;100.00;102478.88;4991548;28;20073;-78
2023/01/22 11:20:24;;;;;;;12.20;1.17;;;;;;;2.15;100.00;102479.34;4993941;28;20055;-78
2023/01/22 11:23:02;;;;;;;2.50;0.73;;;;;;;2.15;100.00;102475.91;4991181;28;20077;-78
2023/01/22 11:25:42;;;;;;;5.72;1.40;;;;;;;2.18;100.00;102483.88;4993517;28;20492;-78
2023/01/22 11:28:22;;;;;;;1.88;0.90;;;;;;;2.16;100.00;102481.16;4993815;28;20058;-77
2023/01/22 11:31:09;;;;;;;4.05;1.00;;;;;;;2.14;100.00;102480.13;4980274;28;20047;-77
2023/01/22 11:34:15;;;;;;;6.68;1.27;;;;;;;2.12;100.00;102481.63;4987921;28;20057;-77
2023/01/22 11:36:50;;;;;;;5.60;1.75;;;;;;;2.10;100.00;102478.03;4985306;28;20050;-76
2023/01/22 11:39:38;;;;;;;5.95;1.02;;;;;;;2.12;100.00;102498.63;4981922;28;20042;-76
2023/01/22 11:42:22;;;;;;;7.72;1.98;;;;;;;2.13;100.00;102495.28;4988273;28;20046;-76
2023/01/22 11:45:02;;;;;;;3.25;1.10;;;;;;;2.14;100.00;102500.56;4990624;28;20895;-76
2023/01/22 11:47:50;;;;;;;10.75;1.38;;;;;;;2.15;100.00;102501.44;4978494;28;20058;-74
2023/01/22 11:50:27;;;;;;;4.25;0.93;;;;;;;2.14;100.00;102505.66;4981432;28;20439;-75
2023/01/22 11:53:06;;;;;;;4.90;1.05;;;;;;;2.14;100.00;102499.66;4984670;28;20054;-76
2023/01/22 11:55:56;;;;;;;5.13;1.40;;;;;;;2.12;100.00;102494.41;4983378;28;20116;-75